sensor_id;sensor_type;location;lat;lon;timestamp;P1;durP1;ratioP1;P2;durP2;ratioP2
37097;SDS011;63608;49.572;12.348;2022-11-15T00:00:09;24.83;;;17.70;;
37097;SDS011;63608;49.572;12.348;2022-11-15T00:02:15;33.30;;;20.10;;
37097;SDS011;63608;49.572;12.348;2022-11-15T00:04:24;27.00;;;18.17;;
37097;SDS011;63608;49.572;12.348;2022-11-15T00:06:27;61.80;;;20.30;;
37097;SDS011;63608;49.572;12.348;2022-11-15T00:08:30;36.10;;;19.83;;
37097;SDS011;63608;49.572;12.348;2022-11-15T00:10:33;135.37;;;21.67;;
37097;SDS011;63608;49.572;12.348;2022-11-15T00:12:38;157.73;;;25.87;;
37097;SDS011;63608;49.572;12.348;2022-11-15T00:14:40;46.83;;;22.90;;
37097;SDS011;63608;49.572;12.348;2022-11-15T00:16:43;59.87;;;24.20;;
37097;SDS011;63608;49.572;12.348;2022-11-15T00:18:48;173.50;;;35.30;;
37097;SDS011;63608;49.572;12.348;2022-11-15T00:20:53;107.70;;;30.30;;
37097;SDS011;63608;49.572;12.348;2022-11-15T00:22:55;139.13;;;29.87;;
37097;SDS011;63608;49.572;12.348;2022-11-15T00:24:59;79.10;;;26.83;;
37097;SDS011;63608;49.572;12.348;2022-11-15T00:27:01;193.03;;;30.90;;
37097;SDS011;63608;49.572;12.348;2022-11-15T00:29:04;118.40;;;31.93;;
37097;SDS011;63608;49.572;12.348;2022-11-15T00:31:07;94.63;;;29.03;;
37097;SDS011;63608;49.572;12.348;2022-11-15T00:33:13;108.40;;;29.67;;
37097;SDS011;63608;49.572;12.348;2022-11-15T00:35:17;75.50;;;26.57;;
37097;SDS011;63608;49.572;12.348;2022-11-15T00:37:22;146.67;;;30.60;;
37097;SDS011;63608;49.572;12.348;2022-11-15T00:39:26;126.03;;;34.40;;
37097;SDS011;63608;49.572;12.348;2022-11-15T00:41:28;67.70;;;27.17;;
37097;SDS011;63608;49.572;12.348;2022-11-15T00:43:31;75.37;;;27.50;;
37097;SDS011;63608;49.572;12.348;2022-11-15T00:45:39;68.03;;;26.77;;
37097;SDS011;63608;49.572;12.348;2022-11-15T00:47:43;151.87;;;29.90;;
37097;SDS011;63608;49.572;12.348;2022-11-15T00:49:48;107.40;;;29.07;;
37097;SDS011;63608;49.572;12.348;2022-11-15T00:51:52;87.07;;;26.40;;
37097;SDS011;63608;49.572;12.348;2022-11-15T00:53:55;46.63;;;24.47;;
37097;SDS011;63608;49.572;12.348;2022-11-15T00:55:57;54.70;;;24.97;;
37097;SDS011;63608;49.572;12.348;2022-11-15T00:58:00;65.77;;;25.97;;
37097;SDS011;63608;49.572;12.348;2022-11-15T01:00:02;102.40;;;25.50;;
37097;SDS011;63608;49.572;12.348;2022-11-15T01:02:06;49.73;;;22.57;;
37097;SDS011;63608;49.572;12.348;2022-11-15T01:04:09;45.43;;;21.63;;
37097;SDS011;63608;49.572;12.348;2022-11-15T01:06:12;85.07;;;25.23;;
37097;SDS011;63608;49.572;12.348;2022-11-15T01:08:20;42.67;;;20.97;;
37097;SDS011;63608;49.572;12.348;2022-11-15T01:10:23;62.27;;;24.23;;
37097;SDS011;63608;49.572;12.348;2022-11-15T01:12:25;51.27;;;23.40;;
37097;SDS011;63608;49.572;12.348;2022-11-15T01:14:28;63.77;;;21.90;;
37097;SDS011;63608;49.572;12.348;2022-11-15T01:16:33;71.87;;;21.13;;
37097;SDS011;63608;49.572;12.348;2022-11-15T01:18:37;51.33;;;21.00;;
37097;SDS011;63608;49.572;12.348;2022-11-15T01:20:40;66.17;;;20.50;;
37097;SDS011;63608;49.572;12.348;2022-11-15T01:22:44;44.33;;;20.60;;
37097;SDS011;63608;49.572;12.348;2022-11-15T01:24:48;54.13;;;20.03;;
37097;SDS011;63608;49.572;12.348;2022-11-15T01:26:51;31.77;;;19.63;;
37097;SDS011;63608;49.572;12.348;2022-11-15T01:28:53;34.43;;;19.40;;
37097;SDS011;63608;49.572;12.348;2022-11-15T01:30:57;110.27;;;22.53;;
37097;SDS011;63608;49.572;12.348;2022-11-15T01:32:59;97.93;;;25.80;;
37097;SDS011;63608;49.572;12.348;2022-11-15T01:35:02;177.60;;;27.90;;
37097;SDS011;63608;49.572;12.348;2022-11-15T01:37:05;69.60;;;23.57;;
37097;SDS011;63608;49.572;12.348;2022-11-15T01:39:09;69.07;;;20.67;;
37097;SDS011;63608;49.572;12.348;2022-11-15T01:41:17;35.97;;;19.97;;
37097;SDS011;63608;49.572;12.348;2022-11-15T01:43:21;41.63;;;18.30;;
37097;SDS011;63608;49.572;12.348;2022-11-15T01:45:28;31.50;;;18.67;;
37097;SDS011;63608;49.572;12.348;2022-11-15T01:47:31;30.10;;;18.50;;
37097;SDS011;63608;49.572;12.348;2022-11-15T01:49:37;32.70;;;18.00;;
37097;SDS011;63608;49.572;12.348;2022-11-15T01:51:41;70.83;;;19.10;;
37097;SDS011;63608;49.572;12.348;2022-11-15T01:53:43;63.07;;;19.60;;
37097;SDS011;63608;49.572;12.348;2022-11-15T01:55:48;34.10;;;18.60;;
37097;SDS011;63608;49.572;12.348;2022-11-15T01:57:53;29.80;;;18.63;;
37097;SDS011;63608;49.572;12.348;2022-11-15T01:59:57;85.77;;;19.83;;
37097;SDS011;63608;49.572;12.348;2022-11-15T02:02:00;35.03;;;19.80;;
37097;SDS011;63608;49.572;12.348;2022-11-15T02:04:04;33.80;;;19.07;;
37097;SDS011;63608;49.572;12.348;2022-11-15T02:06:12;31.93;;;18.77;;
37097;SDS011;63608;49.572;12.348;2022-11-15T02:08:17;42.17;;;19.50;;
37097;SDS011;63608;49.572;12.348;2022-11-15T02:10:22;71.63;;;21.37;;
37097;SDS011;63608;49.572;12.348;2022-11-15T02:12:26;34.63;;;19.07;;
37097;SDS011;63608;49.572;12.348;2022-11-15T02:14:32;47.43;;;20.10;;
37097;SDS011;63608;49.572;12.348;2022-11-15T02:16:35;142.77;;;23.23;;
37097;SDS011;63608;49.572;12.348;2022-11-15T02:18:46;46.57;;;18.53;;
37097;SDS011;63608;49.572;12.348;2022-11-15T02:20:56;208.80;;;29.83;;
37097;SDS011;63608;49.572;12.348;2022-11-15T02:23:08;118.83;;;20.20;;
37097;SDS011;63608;49.572;12.348;2022-11-15T02:25:29;45.37;;;19.07;;
37097;SDS011;63608;49.572;12.348;2022-11-15T02:27:51;92.10;;;18.87;;
37097;SDS011;63608;49.572;12.348;2022-11-15T02:30:16;33.53;;;17.50;;
37097;SDS011;63608;49.572;12.348;2022-11-15T02:32:23;36.53;;;17.40;;
37097;SDS011;63608;49.572;12.348;2022-11-15T02:34:32;55.63;;;16.97;;
37097;SDS011;63608;49.572;12.348;2022-11-15T02:36:41;72.30;;;16.63;;
37097;SDS011;63608;49.572;12.348;2022-11-15T02:38:46;51.83;;;17.13;;
37097;SDS011;63608;49.572;12.348;2022-11-15T02:40:56;30.17;;;15.23;;
37097;SDS011;63608;49.572;12.348;2022-11-15T02:43:00;63.27;;;15.30;;
37097;SDS011;63608;49.572;12.348;2022-11-15T02:45:26;57.30;;;16.70;;
37097;SDS011;63608;49.572;12.348;2022-11-15T02:47:37;35.47;;;15.13;;
37097;SDS011;63608;49.572;12.348;2022-11-15T02:49:46;31.53;;;15.20;;
37097;SDS011;63608;49.572;12.348;2022-11-15T02:51:49;42.80;;;16.10;;
37097;SDS011;63608;49.572;12.348;2022-11-15T02:53:54;60.80;;;17.33;;
37097;SDS011;63608;49.572;12.348;2022-11-15T02:55:56;145.83;;;19.67;;
37097;SDS011;63608;49.572;12.348;2022-11-15T02:58:03;143.43;;;20.57;;
37097;SDS011;63608;49.572;12.348;2022-11-15T03:00:13;101.90;;;17.20;;
37097;SDS011;63608;49.572;12.348;2022-11-15T03:02:27;134.43;;;18.70;;
37097;SDS011;63608;49.572;12.348;2022-11-15T03:04:40;60.17;;;19.17;;
37097;SDS011;63608;49.572;12.348;2022-11-15T03:06:48;53.57;;;16.47;;
37097;SDS011;63608;49.572;12.348;2022-11-15T03:08:55;64.63;;;16.60;;
37097;SDS011;63608;49.572;12.348;2022-11-15T03:11:07;36.97;;;15.80;;
37097;SDS011;63608;49.572;12.348;2022-11-15T03:13:15;163.97;;;21.60;;
37097;SDS011;63608;49.572;12.348;2022-11-15T03:15:24;29.03;;;16.43;;
37097;SDS011;63608;49.572;12.348;2022-11-15T03:17:32;64.27;;;18.23;;
37097;SDS011;63608;49.572;12.348;2022-11-15T03:19:38;33.10;;;18.90;;
37097;SDS011;63608;49.572;12.348;2022-11-15T03:21:42;68.60;;;18.47;;
37097;SDS011;63608;49.572;12.348;2022-11-15T03:23:49;99.17;;;20.37;;
37097;SDS011;63608;49.572;12.348;2022-11-15T03:25:52;82.70;;;18.17;;
37097;SDS011;63608;49.572;12.348;2022-11-15T03:27:57;68.50;;;20.50;;
37097;SDS011;63608;49.572;12.348;2022-11-15T03:30:02;122.47;;;19.97;;
37097;SDS011;63608;49.572;12.348;2022-11-15T03:32:07;50.63;;;18.53;;
37097;SDS011;63608;49.572;12.348;2022-11-15T03:34:17;35.77;;;17.07;;
37097;SDS011;63608;49.572;12.348;2022-11-15T03:36:22;46.33;;;17.73;;
37097;SDS011;63608;49.572;12.348;2022-11-15T03:38:26;47.07;;;17.10;;
37097;SDS011;63608;49.572;12.348;2022-11-15T03:40:30;75.80;;;19.17;;
37097;SDS011;63608;49.572;12.348;2022-11-15T03:42:38;147.97;;;23.90;;
37097;SDS011;63608;49.572;12.348;2022-11-15T03:44:44;82.73;;;20.50;;
37097;SDS011;63608;49.572;12.348;2022-11-15T03:46:51;94.73;;;18.07;;
37097;SDS011;63608;49.572;12.348;2022-11-15T03:48:59;82.03;;;18.40;;
37097;SDS011;63608;49.572;12.348;2022-11-15T03:51:07;83.60;;;20.40;;
37097;SDS011;63608;49.572;12.348;2022-11-15T03:53:10;256.23;;;26.43;;
37097;SDS011;63608;49.572;12.348;2022-11-15T03:55:14;129.70;;;21.77;;
37097;SDS011;63608;49.572;12.348;2022-11-15T03:57:18;71.07;;;19.30;;
37097;SDS011;63608;49.572;12.348;2022-11-15T03:59:20;86.70;;;19.10;;
37097;SDS011;63608;49.572;12.348;2022-11-15T04:01:22;35.77;;;18.20;;
37097;SDS011;63608;49.572;12.348;2022-11-15T04:03:28;75.07;;;18.43;;
37097;SDS011;63608;49.572;12.348;2022-11-15T04:05:35;63.00;;;19.33;;
37097;SDS011;63608;49.572;12.348;2022-11-15T04:07:40;214.87;;;24.73;;
37097;SDS011;63608;49.572;12.348;2022-11-15T04:09:47;29.33;;;17.00;;
37097;SDS011;63608;49.572;12.348;2022-11-15T04:12:06;67.23;;;16.73;;
37097;SDS011;63608;49.572;12.348;2022-11-15T04:14:08;71.60;;;14.90;;
37097;SDS011;63608;49.572;12.348;2022-11-15T04:16:11;27.20;;;16.13;;
37097;SDS011;63608;49.572;12.348;2022-11-15T04:18:29;102.17;;;16.80;;
37097;SDS011;63608;49.572;12.348;2022-11-15T04:20:34;57.53;;;15.97;;
37097;SDS011;63608;49.572;12.348;2022-11-15T04:22:55;37.20;;;13.50;;
37097;SDS011;63608;49.572;12.348;2022-11-15T04:25:15;21.60;;;12.60;;
37097;SDS011;63608;49.572;12.348;2022-11-15T04:27:17;31.67;;;12.60;;
37097;SDS011;63608;49.572;12.348;2022-11-15T04:29:20;33.67;;;12.70;;
37097;SDS011;63608;49.572;12.348;2022-11-15T04:31:38;35.53;;;13.40;;
37097;SDS011;63608;49.572;12.348;2022-11-15T04:33:42;106.70;;;17.40;;
37097;SDS011;63608;49.572;12.348;2022-11-15T04:35:47;37.97;;;13.73;;
37097;SDS011;63608;49.572;12.348;2022-11-15T04:38:05;40.13;;;13.17;;
37097;SDS011;63608;49.572;12.348;2022-11-15T04:40:08;64.77;;;14.30;;
37097;SDS011;63608;49.572;12.348;2022-11-15T04:42:11;72.53;;;13.67;;
37097;SDS011;63608;49.572;12.348;2022-11-15T04:44:16;74.73;;;15.07;;
37097;SDS011;63608;49.572;12.348;2022-11-15T04:46:22;70.63;;;14.73;;
37097;SDS011;63608;49.572;12.348;2022-11-15T04:48:25;81.47;;;15.13;;
37097;SDS011;63608;49.572;12.348;2022-11-15T04:50:27;25.80;;;12.90;;
37097;SDS011;63608;49.572;12.348;2022-11-15T04:52:30;84.10;;;14.30;;
37097;SDS011;63608;49.572;12.348;2022-11-15T04:54:34;101.80;;;14.20;;
37097;SDS011;63608;49.572;12.348;2022-11-15T04:56:38;32.27;;;13.03;;
37097;SDS011;63608;49.572;12.348;2022-11-15T04:58:43;29.53;;;10.43;;
37097;SDS011;63608;49.572;12.348;2022-11-15T05:00:49;32.73;;;11.27;;
37097;SDS011;63608;49.572;12.348;2022-11-15T05:02:53;55.60;;;13.33;;
37097;SDS011;63608;49.572;12.348;2022-11-15T05:05:13;39.00;;;10.80;;
37097;SDS011;63608;49.572;12.348;2022-11-15T05:07:20;34.30;;;10.83;;
37097;SDS011;63608;49.572;12.348;2022-11-15T05:09:24;19.50;;;10.13;;
37097;SDS011;63608;49.572;12.348;2022-11-15T05:11:28;91.43;;;14.10;;
37097;SDS011;63608;49.572;12.348;2022-11-15T05:13:32;58.57;;;10.30;;
37097;SDS011;63608;49.572;12.348;2022-11-15T05:15:35;47.47;;;10.90;;
37097;SDS011;63608;49.572;12.348;2022-11-15T05:17:37;46.13;;;13.43;;
37097;SDS011;63608;49.572;12.348;2022-11-15T05:19:40;117.07;;;13.40;;
37097;SDS011;63608;49.572;12.348;2022-11-15T05:21:43;78.57;;;13.83;;
37097;SDS011;63608;49.572;12.348;2022-11-15T05:23:45;48.67;;;12.83;;
37097;SDS011;63608;49.572;12.348;2022-11-15T05:25:48;27.17;;;11.40;;
37097;SDS011;63608;49.572;12.348;2022-11-15T05:27:53;18.80;;;9.87;;
37097;SDS011;63608;49.572;12.348;2022-11-15T05:29:55;16.00;;;8.93;;
37097;SDS011;63608;49.572;12.348;2022-11-15T05:31:57;26.10;;;9.23;;
37097;SDS011;63608;49.572;12.348;2022-11-15T05:34:03;22.83;;;9.57;;
37097;SDS011;63608;49.572;12.348;2022-11-15T05:36:06;14.63;;;8.97;;
37097;SDS011;63608;49.572;12.348;2022-11-15T05:38:14;28.63;;;9.37;;
37097;SDS011;63608;49.572;12.348;2022-11-15T05:40:16;57.37;;;10.90;;
37097;SDS011;63608;49.572;12.348;2022-11-15T05:42:20;19.73;;;8.70;;
37097;SDS011;63608;49.572;12.348;2022-11-15T05:44:25;70.57;;;12.57;;
37097;SDS011;63608;49.572;12.348;2022-11-15T05:46:28;39.30;;;10.70;;
37097;SDS011;63608;49.572;12.348;2022-11-15T05:48:32;40.87;;;10.17;;
37097;SDS011;63608;49.572;12.348;2022-11-15T05:50:36;53.37;;;9.80;;
37097;SDS011;63608;49.572;12.348;2022-11-15T05:52:42;16.90;;;8.77;;
37097;SDS011;63608;49.572;12.348;2022-11-15T05:54:45;34.10;;;9.60;;
37097;SDS011;63608;49.572;12.348;2022-11-15T05:56:47;14.40;;;8.10;;
37097;SDS011;63608;49.572;12.348;2022-11-15T05:58:51;60.63;;;9.07;;
37097;SDS011;63608;49.572;12.348;2022-11-15T06:01:02;101.03;;;10.40;;
37097;SDS011;63608;49.572;12.348;2022-11-15T06:03:04;25.83;;;9.70;;
37097;SDS011;63608;49.572;12.348;2022-11-15T06:05:06;10.50;;;8.40;;
37097;SDS011;63608;49.572;12.348;2022-11-15T06:07:11;17.20;;;9.20;;
37097;SDS011;63608;49.572;12.348;2022-11-15T06:09:18;47.87;;;9.30;;
37097;SDS011;63608;49.572;12.348;2022-11-15T06:11:22;127.87;;;14.60;;
37097;SDS011;63608;49.572;12.348;2022-11-15T06:13:25;39.70;;;9.10;;
37097;SDS011;63608;49.572;12.348;2022-11-15T06:15:28;28.37;;;9.40;;
37097;SDS011;63608;49.572;12.348;2022-11-15T06:17:32;27.83;;;8.40;;
37097;SDS011;63608;49.572;12.348;2022-11-15T06:19:37;41.13;;;9.80;;
37097;SDS011;63608;49.572;12.348;2022-11-15T06:21:40;86.37;;;9.37;;
37097;SDS011;63608;49.572;12.348;2022-11-15T06:23:46;46.87;;;10.00;;
37097;SDS011;63608;49.572;12.348;2022-11-15T06:25:49;54.87;;;10.37;;
37097;SDS011;63608;49.572;12.348;2022-11-15T06:27:51;59.77;;;10.10;;
37097;SDS011;63608;49.572;12.348;2022-11-15T06:29:54;51.00;;;9.80;;
37097;SDS011;63608;49.572;12.348;2022-11-15T06:32:01;17.83;;;9.20;;
37097;SDS011;63608;49.572;12.348;2022-11-15T06:34:05;11.53;;;7.80;;
37097;SDS011;63608;49.572;12.348;2022-11-15T06:36:08;13.03;;;8.10;;
37097;SDS011;63608;49.572;12.348;2022-11-15T06:38:16;16.40;;;8.40;;
37097;SDS011;63608;49.572;12.348;2022-11-15T06:40:21;24.13;;;7.87;;
37097;SDS011;63608;49.572;12.348;2022-11-15T06:42:24;24.30;;;9.50;;
37097;SDS011;63608;49.572;12.348;2022-11-15T06:44:26;31.73;;;9.83;;
37097;SDS011;63608;49.572;12.348;2022-11-15T06:46:30;20.73;;;8.53;;
37097;SDS011;63608;49.572;12.348;2022-11-15T06:48:34;23.33;;;9.00;;
37097;SDS011;63608;49.572;12.348;2022-11-15T06:50:39;23.53;;;10.60;;
37097;SDS011;63608;49.572;12.348;2022-11-15T06:52:41;11.83;;;8.47;;
37097;SDS011;63608;49.572;12.348;2022-11-15T06:54:44;19.77;;;9.50;;
37097;SDS011;63608;49.572;12.348;2022-11-15T06:56:47;23.20;;;10.97;;
37097;SDS011;63608;49.572;12.348;2022-11-15T06:58:49;22.63;;;10.60;;
37097;SDS011;63608;49.572;12.348;2022-11-15T07:00:52;19.50;;;10.93;;
37097;SDS011;63608;49.572;12.348;2022-11-15T07:02:56;11.20;;;9.53;;
37097;SDS011;63608;49.572;12.348;2022-11-15T07:05:01;18.83;;;9.80;;
37097;SDS011;63608;49.572;12.348;2022-11-15T07:07:05;24.53;;;9.87;;
37097;SDS011;63608;49.572;12.348;2022-11-15T07:09:11;18.57;;;9.10;;
37097;SDS011;63608;49.572;12.348;2022-11-15T07:11:13;20.20;;;10.23;;
37097;SDS011;63608;49.572;12.348;2022-11-15T07:13:19;23.23;;;9.70;;
37097;SDS011;63608;49.572;12.348;2022-11-15T07:15:22;47.83;;;10.10;;
37097;SDS011;63608;49.572;12.348;2022-11-15T07:17:29;18.47;;;9.67;;
37097;SDS011;63608;49.572;12.348;2022-11-15T07:19:32;62.73;;;11.60;;
37097;SDS011;63608;49.572;12.348;2022-11-15T07:21:36;77.63;;;10.10;;
37097;SDS011;63608;49.572;12.348;2022-11-15T07:23:41;71.40;;;10.50;;
37097;SDS011;63608;49.572;12.348;2022-11-15T07:25:43;65.83;;;10.30;;
37097;SDS011;63608;49.572;12.348;2022-11-15T07:27:54;35.77;;;10.07;;
37097;SDS011;63608;49.572;12.348;2022-11-15T07:29:57;26.23;;;9.47;;
37097;SDS011;63608;49.572;12.348;2022-11-15T07:31:59;64.03;;;11.27;;
37097;SDS011;63608;49.572;12.348;2022-11-15T07:34:03;24.63;;;10.47;;
37097;SDS011;63608;49.572;12.348;2022-11-15T07:36:07;74.47;;;13.73;;
37097;SDS011;63608;49.572;12.348;2022-11-15T07:38:11;40.90;;;10.17;;
37097;SDS011;63608;49.572;12.348;2022-11-15T07:40:17;57.33;;;10.37;;
37097;SDS011;63608;49.572;12.348;2022-11-15T07:42:24;20.07;;;10.03;;
37097;SDS011;63608;49.572;12.348;2022-11-15T07:44:55;55.80;;;10.70;;
37097;SDS011;63608;49.572;12.348;2022-11-15T07:46:59;30.53;;;9.77;;
37097;SDS011;63608;49.572;12.348;2022-11-15T07:49:03;41.93;;;10.53;;
37097;SDS011;63608;49.572;12.348;2022-11-15T07:51:06;26.53;;;9.90;;
37097;SDS011;63608;49.572;12.348;2022-11-15T07:53:09;42.63;;;11.80;;
37097;SDS011;63608;49.572;12.348;2022-11-15T07:55:13;18.57;;;10.30;;
37097;SDS011;63608;49.572;12.348;2022-11-15T07:57:18;18.60;;;10.13;;
37097;SDS011;63608;49.572;12.348;2022-11-15T07:59:20;61.50;;;14.37;;
37097;SDS011;63608;49.572;12.348;2022-11-15T08:01:24;37.87;;;10.90;;
37097;SDS011;63608;49.572;12.348;2022-11-15T08:03:28;27.83;;;12.83;;
37097;SDS011;63608;49.572;12.348;2022-11-15T08:05:30;68.53;;;15.87;;
37097;SDS011;63608;49.572;12.348;2022-11-15T08:07:33;18.80;;;12.90;;
37097;SDS011;63608;49.572;12.348;2022-11-15T08:09:35;69.53;;;11.53;;
37097;SDS011;63608;49.572;12.348;2022-11-15T08:11:39;42.00;;;12.93;;
37097;SDS011;63608;49.572;12.348;2022-11-15T08:13:43;22.57;;;12.40;;
37097;SDS011;63608;49.572;12.348;2022-11-15T08:15:47;63.13;;;11.20;;
37097;SDS011;63608;49.572;12.348;2022-11-15T08:17:53;213.83;;;18.43;;
37097;SDS011;63608;49.572;12.348;2022-11-15T08:19:56;48.13;;;12.90;;
37097;SDS011;63608;49.572;12.348;2022-11-15T08:21:58;21.23;;;10.97;;
37097;SDS011;63608;49.572;12.348;2022-11-15T08:24:01;30.47;;;11.53;;
37097;SDS011;63608;49.572;12.348;2022-11-15T08:26:04;23.73;;;15.63;;
37097;SDS011;63608;49.572;12.348;2022-11-15T08:28:12;24.40;;;16.80;;
37097;SDS011;63608;49.572;12.348;2022-11-15T08:30:18;21.10;;;14.43;;
37097;SDS011;63608;49.572;12.348;2022-11-15T08:32:21;15.17;;;10.93;;
37097;SDS011;63608;49.572;12.348;2022-11-15T08:34:24;11.60;;;10.40;;
37097;SDS011;63608;49.572;12.348;2022-11-15T08:36:30;13.00;;;10.73;;
37097;SDS011;63608;49.572;12.348;2022-11-15T08:38:37;12.90;;;11.40;;
37097;SDS011;63608;49.572;12.348;2022-11-15T08:40:40;11.50;;;10.30;;
37097;SDS011;63608;49.572;12.348;2022-11-15T08:42:45;10.67;;;9.57;;
37097;SDS011;63608;49.572;12.348;2022-11-15T08:44:49;10.50;;;9.47;;
37097;SDS011;63608;49.572;12.348;2022-11-15T08:46:54;11.30;;;9.77;;
37097;SDS011;63608;49.572;12.348;2022-11-15T08:48:56;20.97;;;10.03;;
37097;SDS011;63608;49.572;12.348;2022-11-15T08:50:59;11.07;;;9.00;;
37097;SDS011;63608;49.572;12.348;2022-11-15T08:53:04;10.90;;;9.77;;
37097;SDS011;63608;49.572;12.348;2022-11-15T08:55:08;12.93;;;9.23;;
37097;SDS011;63608;49.572;12.348;2022-11-15T08:57:11;11.17;;;9.30;;
37097;SDS011;63608;49.572;12.348;2022-11-15T08:59:14;12.30;;;10.50;;
37097;SDS011;63608;49.572;12.348;2022-11-15T09:01:19;11.17;;;9.60;;
37097;SDS011;63608;49.572;12.348;2022-11-15T09:03:22;11.23;;;10.13;;
37097;SDS011;63608;49.572;12.348;2022-11-15T09:05:25;10.50;;;9.33;;
37097;SDS011;63608;49.572;12.348;2022-11-15T09:07:27;10.80;;;9.70;;
37097;SDS011;63608;49.572;12.348;2022-11-15T09:09:31;11.53;;;10.33;;
37097;SDS011;63608;49.572;12.348;2022-11-15T09:11:35;10.10;;;9.10;;
37097;SDS011;63608;49.572;12.348;2022-11-15T09:13:39;12.30;;;10.67;;
37097;SDS011;63608;49.572;12.348;2022-11-15T09:15:43;13.70;;;11.60;;
37097;SDS011;63608;49.572;12.348;2022-11-15T09:17:49;11.53;;;10.17;;
37097;SDS011;63608;49.572;12.348;2022-11-15T09:20:20;14.00;;;11.60;;
37097;SDS011;63608;49.572;12.348;2022-11-15T09:22:22;15.63;;;12.00;;
37097;SDS011;63608;49.572;12.348;2022-11-15T09:24:24;14.23;;;12.03;;
37097;SDS011;63608;49.572;12.348;2022-11-15T09:26:30;15.10;;;12.80;;
37097;SDS011;63608;49.572;12.348;2022-11-15T09:28:33;12.20;;;10.90;;
37097;SDS011;63608;49.572;12.348;2022-11-15T09:30:42;14.60;;;12.43;;
37097;SDS011;63608;49.572;12.348;2022-11-15T09:32:49;13.07;;;11.10;;
37097;SDS011;63608;49.572;12.348;2022-11-15T09:34:52;13.27;;;11.37;;
37097;SDS011;63608;49.572;12.348;2022-11-15T09:36:57;12.60;;;11.30;;
37097;SDS011;63608;49.572;12.348;2022-11-15T09:38:59;16.10;;;13.10;;
37097;SDS011;63608;49.572;12.348;2022-11-15T09:41:24;14.73;;;12.33;;
37097;SDS011;63608;49.572;12.348;2022-11-15T09:43:32;13.77;;;11.77;;
37097;SDS011;63608;49.572;12.348;2022-11-15T09:45:41;10.57;;;9.47;;
37097;SDS011;63608;49.572;12.348;2022-11-15T09:50:34;12.13;;;10.37;;
37097;SDS011;63608;49.572;12.348;2022-11-15T09:52:39;14.20;;;11.60;;
37097;SDS011;63608;49.572;12.348;2022-11-15T09:54:46;12.07;;;10.20;;
37097;SDS011;63608;49.572;12.348;2022-11-15T09:56:49;11.53;;;10.30;;
37097;SDS011;63608;49.572;12.348;2022-11-15T09:58:53;13.17;;;11.33;;
37097;SDS011;63608;49.572;12.348;2022-11-15T10:01:03;10.97;;;9.87;;
37097;SDS011;63608;49.572;12.348;2022-11-15T10:03:09;12.00;;;10.77;;
37097;SDS011;63608;49.572;12.348;2022-11-15T10:05:14;12.20;;;10.67;;
37097;SDS011;63608;49.572;12.348;2022-11-15T10:07:24;12.70;;;9.50;;
37097;SDS011;63608;49.572;12.348;2022-11-15T10:09:28;10.70;;;9.60;;
37097;SDS011;63608;49.572;12.348;2022-11-15T10:11:35;11.57;;;10.47;;
37097;SDS011;63608;49.572;12.348;2022-11-15T10:13:40;11.00;;;9.90;;
37097;SDS011;63608;49.572;12.348;2022-11-15T10:15:44;12.83;;;11.00;;
37097;SDS011;63608;49.572;12.348;2022-11-15T10:17:55;10.73;;;9.10;;
37097;SDS011;63608;49.572;12.348;2022-11-15T10:20:16;8.97;;;8.13;;
37097;SDS011;63608;49.572;12.348;2022-11-15T10:22:26;11.03;;;9.50;;
37097;SDS011;63608;49.572;12.348;2022-11-15T10:24:32;10.77;;;9.70;;
37097;SDS011;63608;49.572;12.348;2022-11-15T10:26:36;12.10;;;10.33;;
37097;SDS011;63608;49.572;12.348;2022-11-15T10:28:39;11.37;;;10.17;;
37097;SDS011;63608;49.572;12.348;2022-11-15T10:30:45;11.17;;;9.70;;
37097;SDS011;63608;49.572;12.348;2022-11-15T10:32:49;10.10;;;9.13;;
37097;SDS011;63608;49.572;12.348;2022-11-15T10:34:53;10.03;;;9.03;;
37097;SDS011;63608;49.572;12.348;2022-11-15T10:36:56;9.97;;;8.97;;
37097;SDS011;63608;49.572;12.348;2022-11-15T10:39:05;10.63;;;9.53;;
37097;SDS011;63608;49.572;12.348;2022-11-15T10:41:07;10.67;;;9.60;;
37097;SDS011;63608;49.572;12.348;2022-11-15T10:43:14;10.60;;;9.30;;
37097;SDS011;63608;49.572;12.348;2022-11-15T10:45:29;12.87;;;9.73;;
37097;SDS011;63608;49.572;12.348;2022-11-15T10:47:33;12.03;;;10.67;;
37097;SDS011;63608;49.572;12.348;2022-11-15T10:49:36;10.50;;;9.40;;
37097;SDS011;63608;49.572;12.348;2022-11-15T10:51:40;11.10;;;9.93;;
37097;SDS011;63608;49.572;12.348;2022-11-15T10:53:45;8.90;;;8.10;;
37097;SDS011;63608;49.572;12.348;2022-11-15T10:55:50;9.70;;;8.70;;
37097;SDS011;63608;49.572;12.348;2022-11-15T10:57:54;9.10;;;8.20;;
37097;SDS011;63608;49.572;12.348;2022-11-15T11:00:01;9.87;;;8.87;;
37097;SDS011;63608;49.572;12.348;2022-11-15T11:02:23;9.37;;;8.50;;
37097;SDS011;63608;49.572;12.348;2022-11-15T11:04:40;8.67;;;7.87;;
37097;SDS011;63608;49.572;12.348;2022-11-15T11:06:52;9.60;;;8.70;;
37097;SDS011;63608;49.572;12.348;2022-11-15T11:08:57;9.40;;;8.50;;
37097;SDS011;63608;49.572;12.348;2022-11-15T11:11:03;10.40;;;9.40;;
37097;SDS011;63608;49.572;12.348;2022-11-15T11:13:13;10.00;;;9.00;;
37097;SDS011;63608;49.572;12.348;2022-11-15T11:15:18;9.07;;;8.23;;
37097;SDS011;63608;49.572;12.348;2022-11-15T11:17:22;8.40;;;7.70;;
37097;SDS011;63608;49.572;12.348;2022-11-15T11:19:51;9.10;;;8.20;;
37097;SDS011;63608;49.572;12.348;2022-11-15T11:22:00;9.40;;;8.50;;
37097;SDS011;63608;49.572;12.348;2022-11-15T11:24:08;9.90;;;8.90;;
37097;SDS011;63608;49.572;12.348;2022-11-15T11:26:23;11.63;;;9.30;;
37097;SDS011;63608;49.572;12.348;2022-11-15T11:28:39;8.83;;;8.03;;
37097;SDS011;63608;49.572;12.348;2022-11-15T11:30:47;8.87;;;8.07;;
37097;SDS011;63608;49.572;12.348;2022-11-15T11:32:58;8.87;;;8.07;;
37097;SDS011;63608;49.572;12.348;2022-11-15T11:35:09;8.03;;;7.33;;
37097;SDS011;63608;49.572;12.348;2022-11-15T11:37:17;8.90;;;8.10;;
37097;SDS011;63608;49.572;12.348;2022-11-15T11:39:28;9.13;;;7.97;;
37097;SDS011;63608;49.572;12.348;2022-11-15T11:41:43;8.60;;;7.63;;
37097;SDS011;63608;49.572;12.348;2022-11-15T11:43:52;8.33;;;7.63;;
37097;SDS011;63608;49.572;12.348;2022-11-15T11:46:08;8.67;;;7.90;;
37097;SDS011;63608;49.572;12.348;2022-11-15T11:48:20;8.47;;;6.70;;
37097;SDS011;63608;49.572;12.348;2022-11-15T11:50:28;7.60;;;6.83;;
37097;SDS011;63608;49.572;12.348;2022-11-15T11:52:33;6.87;;;6.27;;
37097;SDS011;63608;49.572;12.348;2022-11-15T11:54:43;7.23;;;6.53;;
37097;SDS011;63608;49.572;12.348;2022-11-15T11:56:50;7.17;;;6.43;;
37097;SDS011;63608;49.572;12.348;2022-11-15T11:58:54;7.47;;;6.70;;
37097;SDS011;63608;49.572;12.348;2022-11-15T12:01:01;6.63;;;6.00;;
37097;SDS011;63608;49.572;12.348;2022-11-15T12:03:11;9.23;;;6.40;;
37097;SDS011;63608;49.572;12.348;2022-11-15T12:05:16;8.87;;;6.60;;
37097;SDS011;63608;49.572;12.348;2022-11-15T12:07:27;9.50;;;7.10;;
37097;SDS011;63608;49.572;12.348;2022-11-15T12:09:38;7.43;;;6.73;;
37097;SDS011;63608;49.572;12.348;2022-11-15T12:11:47;7.30;;;6.70;;